createdAt,value
2022-12-22T00:00:36.189Z,85.30
2022-12-22T00:05:55.505Z,85.92
2022-12-22T00:11:14.526Z,85.92
2022-12-22T00:16:33.342Z,85.87
2022-12-22T00:21:52.668Z,86.74
2022-12-22T00:27:10.749Z,87.20
2022-12-22T00:32:32.757Z,87.78
2022-12-22T00:37:54.441Z,88.12
2022-12-22T00:43:12.650Z,87.87
2022-12-22T00:48:40.735Z,87.62
2022-12-22T00:54:00.282Z,87.41
2022-12-22T00:59:19.408Z,87.82
2022-12-22T01:04:37.859Z,87.36
2022-12-22T01:09:57.211Z,87.15
2022-12-22T01:15:15.611Z,87.04
2022-12-22T01:20:34.267Z,86.50
2022-12-22T01:25:53.856Z,86.41
2022-12-22T01:31:11.991Z,85.96
2022-12-22T01:36:30.335Z,86.59
2022-12-22T01:41:49.924Z,86.33
2022-12-22T01:47:08.044Z,86.72
2022-12-22T01:52:27.140Z,86.15
2022-12-22T01:57:48.176Z,85.25
2022-12-22T02:03:07.689Z,84.66
2022-12-22T02:08:35.984Z,84.09
2022-12-22T02:14:03.517Z,83.76
2022-12-22T02:19:33.400Z,83.85
2022-12-22T02:24:57.920Z,83.74
2022-12-22T02:30:21.422Z,83.99
2022-12-22T02:35:39.903Z,84.18
2022-12-22T02:41:08.442Z,83.16
2022-12-22T02:46:36.633Z,83.88
2022-12-22T02:52:00.331Z,84.56
2022-12-22T02:57:21.773Z,85.72
2022-12-22T03:02:41.316Z,85.43
2022-12-22T03:08:04.462Z,85.63
2022-12-22T03:13:26.395Z,85.73
2022-12-22T03:18:45.827Z,86.54
2022-12-22T03:24:04.405Z,87.74
2022-12-22T03:29:05.044Z,87.49
2022-12-22T03:34:07.096Z,87.52
2022-12-22T03:39:08.011Z,87.74
2022-12-22T03:44:26.229Z,87.81
2022-12-22T03:49:28.277Z,87.20
2022-12-22T03:54:28.937Z,87.22
2022-12-22T03:59:29.583Z,87.04
2022-12-22T04:04:31.565Z,86.66
2022-12-22T04:09:32.261Z,86.03
2022-12-22T04:14:34.519Z,85.80
2022-12-22T04:19:36.903Z,86.12
2022-12-22T04:24:37.559Z,84.71
2022-12-22T04:29:38.184Z,85.06
2022-12-22T04:34:40.152Z,85.70
2022-12-22T04:39:40.800Z,85.80
2022-12-22T04:44:41.420Z,85.39
2022-12-22T04:49:43.570Z,85.20
2022-12-22T04:54:44.227Z,85.23
2022-12-22T04:59:44.876Z,84.79
2022-12-22T05:04:46.868Z,85.35
2022-12-22T05:09:47.519Z,84.74
2022-12-22T05:14:48.165Z,84.79
2022-12-22T05:19:50.169Z,84.54
2022-12-22T05:24:50.873Z,84.68
2022-12-22T05:29:51.537Z,84.59
2022-12-22T05:34:53.536Z,84.70
2022-12-22T05:39:54.202Z,84.17
2022-12-22T05:44:54.852Z,84.11
2022-12-22T05:49:56.840Z,85.32
2022-12-22T05:54:57.490Z,85.78
2022-12-22T05:59:58.128Z,86.55
2022-12-22T06:05:00.121Z,86.75
2022-12-22T06:10:02.824Z,87.15
2022-12-22T06:15:10.142Z,86.58
2022-12-22T06:20:13.457Z,87.33
2022-12-22T06:25:18.734Z,86.92
2022-12-22T06:30:19.883Z,88.10
2022-12-22T06:35:22.004Z,87.53
2022-12-22T06:40:22.800Z,87.63
2022-12-22T06:45:23.510Z,88.14
2022-12-22T06:50:25.567Z,88.54
2022-12-22T06:55:26.300Z,88.55
2022-12-22T07:00:27.065Z,88.38
2022-12-22T07:05:30.482Z,88.25
2022-12-22T07:10:49.016Z,88.84
2022-12-22T07:15:59.227Z,88.49
2022-12-22T07:21:04.065Z,88.69
2022-12-22T07:26:06.103Z,88.23
2022-12-22T07:31:07.484Z,88.01
2022-12-22T07:36:13.015Z,88.21
2022-12-22T07:41:33.350Z,87.32
2022-12-22T07:46:36.551Z,86.48
2022-12-22T07:51:40.835Z,86.61
2022-12-22T07:56:42.673Z,86.17
2022-12-22T08:01:43.500Z,86.15
2022-12-22T08:06:45.972Z,85.67
2022-12-22T08:11:46.642Z,84.57
2022-12-22T08:16:47.334Z,84.23
2022-12-22T08:21:53.001Z,83.91
2022-12-22T08:26:58.585Z,83.14
2022-12-22T08:31:59.496Z,81.91
2022-12-22T08:37:03.989Z,82.17
2022-12-22T08:42:06.621Z,80.55
2022-12-22T08:47:12.987Z,80.75
2022-12-22T08:52:19.054Z,80.25
2022-12-22T08:57:20.063Z,79.76
2022-12-22T09:02:20.854Z,78.73
2022-12-22T09:07:22.930Z,78.32
2022-12-22T09:12:23.589Z,77.62
2022-12-22T09:17:24.345Z,77.53
2022-12-22T09:22:28.643Z,78.26
2022-12-22T09:27:31.157Z,77.41
2022-12-22T09:32:31.900Z,77.17
2022-12-22T09:37:33.882Z,77.47
2022-12-22T09:42:36.378Z,76.83
2022-12-22T09:47:40.277Z,75.93
2022-12-22T09:52:47.467Z,76.00
2022-12-22T09:57:48.745Z,75.90
2022-12-22T10:03:00.906Z,76.49
2022-12-22T10:08:04.060Z,76.95
2022-12-22T10:13:06.157Z,77.12
2022-12-22T10:18:12.063Z,76.66
2022-12-22T10:23:19.405Z,77.19
2022-12-22T10:28:23.632Z,77.31
2022-12-22T10:33:24.273Z,77.16
2022-12-22T10:38:29.454Z,76.64
2022-12-22T10:43:32.711Z,76.97
2022-12-22T10:48:36.759Z,77.61
2022-12-22T10:53:47.968Z,78.94
2022-12-22T10:58:50.952Z,79.36
2022-12-22T11:03:51.880Z,80.26
2022-12-22T11:08:58.165Z,79.93
2022-12-22T11:14:21.085Z,79.49
2022-12-22T11:19:46.800Z,79.16
2022-12-22T11:25:01.381Z,78.90
2022-12-22T11:30:08.828Z,78.47
2022-12-22T11:35:15.260Z,78.18
2022-12-22T11:40:29.185Z,79.29
2022-12-22T11:45:44.357Z,79.76
2022-12-22T11:51:00.180Z,79.24
2022-12-22T11:56:22.732Z,79.12
2022-12-22T12:01:39.608Z,79.00
2022-12-22T12:07:00.048Z,79.59
2022-12-22T12:12:10.894Z,79.34
2022-12-22T12:17:26.441Z,79.06
2022-12-22T12:22:40.918Z,78.84
2022-12-22T12:27:55.202Z,79.31
2022-12-22T12:33:01.351Z,78.84
2022-12-22T12:38:06.895Z,78.43
2022-12-22T12:43:16.243Z,77.24
2022-12-22T12:48:40.360Z,77.06
2022-12-22T12:54:18.692Z,75.70
2022-12-22T12:59:47.138Z,71.86
2022-12-22T13:05:33.326Z,69.69
2022-12-22T13:10:35.577Z,69.12
2022-12-22T13:15:40.192Z,69.16
2022-12-22T13:20:41.057Z,68.47
2022-12-22T13:25:46.225Z,67.53
2022-12-22T13:30:51.337Z,68.61
2022-12-22T13:35:58.534Z,68.41
2022-12-22T13:41:01.899Z,68.60
2022-12-22T13:46:04.404Z,68.08
2022-12-22T13:51:09.069Z,68.59
2022-12-22T13:56:15.020Z,68.14
2022-12-22T14:01:20.239Z,69.32
2022-12-22T14:06:26.279Z,69.59
2022-12-22T14:11:27.025Z,69.74
2022-12-22T14:16:29.102Z,70.35
2022-12-22T14:21:29.989Z,70.52
2022-12-22T14:26:31.266Z,70.38
2022-12-22T14:31:33.365Z,70.88
2022-12-22T14:36:40.842Z,71.30
2022-12-22T14:41:51.633Z,71.05
2022-12-22T14:47:17.465Z,71.16
2022-12-22T14:52:27.760Z,71.73
2022-12-22T14:57:36.339Z,71.60
2022-12-22T15:02:50.871Z,70.45
2022-12-22T15:08:05.301Z,71.06
2022-12-22T15:13:13.118Z,71.13
2022-12-22T15:18:16.679Z,70.49
2022-12-22T15:23:17.651Z,72.00
2022-12-22T15:28:18.335Z,73.69
2022-12-22T15:33:21.016Z,77.04
2022-12-22T15:38:23.871Z,78.78
2022-12-22T15:48:47.484Z,82.24
2022-12-22T15:53:48.239Z,84.26
2022-12-22T15:58:49.943Z,86.08
2022-12-22T16:03:52.129Z,86.49
2022-12-22T16:08:54.620Z,87.83
2022-12-22T16:13:55.403Z,88.12
2022-12-22T16:18:57.499Z,88.81
2022-12-22T16:23:58.710Z,88.89
2022-12-22T16:29:00.009Z,89.62
2022-12-22T16:34:02.005Z,90.48
2022-12-22T16:39:02.718Z,90.32
2022-12-22T16:44:08.135Z,90.62
2022-12-22T16:49:10.459Z,90.77
2022-12-22T16:54:14.755Z,90.66
2022-12-22T16:59:16.729Z,90.90
2022-12-22T17:04:22.797Z,90.29
2022-12-22T17:09:29.471Z,89.60
2022-12-22T17:14:32.956Z,89.48
2022-12-22T17:19:34.954Z,89.50
2022-12-22T17:24:35.688Z,89.58
2022-12-22T17:29:37.380Z,89.83
2022-12-22T17:34:39.452Z,89.38
2022-12-22T17:39:40.455Z,89.37
2022-12-22T17:44:41.154Z,89.18
2022-12-22T17:49:44.564Z,89.78
2022-12-22T17:54:46.310Z,89.11
2022-12-22T17:59:47.323Z,88.74
2022-12-22T18:04:50.398Z,88.60
2022-12-22T18:09:53.104Z,87.85
2022-12-22T18:14:54.063Z,88.02
2022-12-22T18:19:56.448Z,87.36
2022-12-22T18:24:58.444Z,87.03
2022-12-22T18:30:00.095Z,86.88
2022-12-22T18:35:02.250Z,87.60
2022-12-22T18:40:03.202Z,87.65
2022-12-22T18:45:04.087Z,86.87
2022-12-22T18:50:07.465Z,87.25
2022-12-22T18:55:15.803Z,87.97
2022-12-22T19:00:29.205Z,88.89
2022-12-22T19:05:34.364Z,89.75
2022-12-22T19:10:38.295Z,90.18
2022-12-22T19:15:39.681Z,89.55
2022-12-22T19:20:41.855Z,89.80
2022-12-22T19:25:45.617Z,90.21
2022-12-22T19:30:46.329Z,90.39
2022-12-22T19:35:48.393Z,90.88
2022-12-22T19:40:51.746Z,90.83
2022-12-22T19:45:54.065Z,90.75
2022-12-22T19:50:56.418Z,91.19
2022-12-22T19:55:58.289Z,90.13
2022-12-22T20:00:59.604Z,90.21
2022-12-22T20:06:01.648Z,89.42
2022-12-22T20:11:02.671Z,90.06
2022-12-22T20:16:04.969Z,90.56
2022-12-22T20:21:11.485Z,91.17
2022-12-22T20:26:17.293Z,91.59
2022-12-22T20:31:20.489Z,91.69
2022-12-22T20:36:26.332Z,91.50
2022-12-22T20:41:28.143Z,91.13
2022-12-22T20:46:30.319Z,91.06
2022-12-22T20:51:34.578Z,90.90
2022-12-22T20:56:39.312Z,90.56
2022-12-22T21:01:40.085Z,90.46
2022-12-22T21:06:46.862Z,90.25
2022-12-22T21:11:47.901Z,91.39
2022-12-22T21:16:49.798Z,91.03
2022-12-22T21:21:51.868Z,90.82
2022-12-22T21:26:54.341Z,91.16
2022-12-22T21:31:55.296Z,91.39
2022-12-22T21:37:02.412Z,90.88
2022-12-22T21:42:04.499Z,92.04
2022-12-22T21:47:05.687Z,92.06
2022-12-22T21:52:07.826Z,91.64
2022-12-22T21:57:13.825Z,91.22
2022-12-22T22:02:17.262Z,91.45
2022-12-22T22:07:19.370Z,91.34
2022-12-22T22:12:37.156Z,90.58
2022-12-22T22:17:38.333Z,91.40
2022-12-22T22:22:40.318Z,91.10
2022-12-22T22:27:47.510Z,90.44
2022-12-22T22:32:49.462Z,90.11
2022-12-22T22:37:51.833Z,90.63
2022-12-22T22:42:52.555Z,90.61
2022-12-22T22:47:54.103Z,91.65
2022-12-22T22:52:56.126Z,91.91
2022-12-22T22:57:56.761Z,91.89
2022-12-22T23:02:57.779Z,91.36
2022-12-22T23:08:01.393Z,91.83
2022-12-22T23:13:02.045Z,91.56
2022-12-22T23:18:02.715Z,91.54
2022-12-22T23:23:04.699Z,91.02
2022-12-22T23:28:05.815Z,90.98
2022-12-22T23:33:06.495Z,91.67
2022-12-22T23:38:10.595Z,91.65
2022-12-22T23:43:12.744Z,90.59
2022-12-22T23:48:13.420Z,91.39
2022-12-22T23:53:15.642Z,91.03
2022-12-22T23:58:17.633Z,90.89
